sensor_id;sensor_type;location;lat;lon;timestamp;temperature;humidity
42615;DHT22;28754;47.700;7.924;2023-02-11T00:00:55;2.00;99.90
42615;DHT22;28754;47.700;7.924;2023-02-11T00:03:41;2.10;99.90
42615;DHT22;28754;47.700;7.924;2023-02-11T00:06:29;1.90;99.90
42615;DHT22;28754;47.700;7.924;2023-02-11T00:09:17;1.90;99.90
42615;DHT22;28754;47.700;7.924;2023-02-11T00:12:04;1.90;99.90
42615;DHT22;28754;47.700;7.924;2023-02-11T00:14:50;2.00;99.90
42615;DHT22;28754;47.700;7.924;2023-02-11T00:17:37;1.90;99.90
42615;DHT22;28754;47.700;7.924;2023-02-11T00:20:24;1.90;99.90
42615;DHT22;28754;47.700;7.924;2023-02-11T00:23:11;2.00;99.90
42615;DHT22;28754;47.700;7.924;2023-02-11T00:25:57;2.00;99.90
42615;DHT22;28754;47.700;7.924;2023-02-11T00:28:45;1.90;99.90
42615;DHT22;28754;47.700;7.924;2023-02-11T00:31:33;1.80;99.90
42615;DHT22;28754;47.700;7.924;2023-02-11T00:34:19;1.80;99.90
42615;DHT22;28754;47.700;7.924;2023-02-11T00:37:06;1.80;99.90
42615;DHT22;28754;47.700;7.924;2023-02-11T00:39:53;1.90;99.90
42615;DHT22;28754;47.700;7.924;2023-02-11T00:42:40;1.80;99.90
42615;DHT22;28754;47.700;7.924;2023-02-11T00:45:27;1.70;99.90
42615;DHT22;28754;47.700;7.924;2023-02-11T00:48:15;1.80;99.90
42615;DHT22;28754;47.700;7.924;2023-02-11T00:51:03;1.90;99.90
42615;DHT22;28754;47.700;7.924;2023-02-11T00:53:49;2.00;99.90
42615;DHT22;28754;47.700;7.924;2023-02-11T00:56:36;1.90;99.90
42615;DHT22;28754;47.700;7.924;2023-02-11T00:59:23;1.80;99.90
42615;DHT22;28754;47.700;7.924;2023-02-11T01:02:09;1.90;99.90
42615;DHT22;28754;47.700;7.924;2023-02-11T01:04:56;1.90;99.90
42615;DHT22;28754;47.700;7.924;2023-02-11T01:07:45;1.90;99.90
42615;DHT22;28754;47.700;7.924;2023-02-11T01:10:32;1.80;99.90
42615;DHT22;28754;47.700;7.924;2023-02-11T01:13:19;1.80;99.90
42615;DHT22;28754;47.700;7.924;2023-02-11T01:16:08;1.70;99.90
42615;DHT22;28754;47.700;7.924;2023-02-11T01:18:55;1.80;99.90
42615;DHT22;28754;47.700;7.924;2023-02-11T01:21:44;1.60;99.90
42615;DHT22;28754;47.700;7.924;2023-02-11T01:24:30;1.60;99.90
42615;DHT22;28754;47.700;7.924;2023-02-11T01:27:17;1.60;99.90
42615;DHT22;28754;47.700;7.924;2023-02-11T01:30:05;1.70;99.90
42615;DHT22;28754;47.700;7.924;2023-02-11T01:32:53;1.60;99.90
42615;DHT22;28754;47.700;7.924;2023-02-11T01:35:40;1.60;99.90
42615;DHT22;28754;47.700;7.924;2023-02-11T01:38:27;1.60;99.90
42615;DHT22;28754;47.700;7.924;2023-02-11T01:41:14;1.60;99.90
42615;DHT22;28754;47.700;7.924;2023-02-11T01:44:38;1.60;99.90
42615;DHT22;28754;47.700;7.924;2023-02-11T01:47:25;1.80;99.90
42615;DHT22;28754;47.700;7.924;2023-02-11T01:50:12;1.80;99.90
42615;DHT22;28754;47.700;7.924;2023-02-11T01:52:59;1.70;99.90
42615;DHT22;28754;47.700;7.924;2023-02-11T01:56:06;1.70;99.90
42615;DHT22;28754;47.700;7.924;2023-02-11T01:59:17;1.70;99.90
42615;DHT22;28754;47.700;7.924;2023-02-11T02:02:11;1.70;99.90
42615;DHT22;28754;47.700;7.924;2023-02-11T02:08:20;1.60;99.90
42615;DHT22;28754;47.700;7.924;2023-02-11T02:11:14;1.60;99.90
42615;DHT22;28754;47.700;7.924;2023-02-11T02:14:01;1.50;99.90
42615;DHT22;28754;47.700;7.924;2023-02-11T02:16:49;1.50;99.90
42615;DHT22;28754;47.700;7.924;2023-02-11T02:20:27;1.30;99.90
42615;DHT22;28754;47.700;7.924;2023-02-11T02:33:38;1.30;99.90
42615;DHT22;28754;47.700;7.924;2023-02-11T02:36:42;1.40;99.90
42615;DHT22;28754;47.700;7.924;2023-02-11T02:39:37;1.40;99.90
42615;DHT22;28754;47.700;7.924;2023-02-11T02:42:24;1.20;99.90
42615;DHT22;28754;47.700;7.924;2023-02-11T02:45:12;1.30;99.90
42615;DHT22;28754;47.700;7.924;2023-02-11T02:48:00;1.30;99.90
42615;DHT22;28754;47.700;7.924;2023-02-11T02:50:47;1.40;99.90
42615;DHT22;28754;47.700;7.924;2023-02-11T02:53:54;1.30;99.90
42615;DHT22;28754;47.700;7.924;2023-02-11T02:57:02;1.40;99.90
42615;DHT22;28754;47.700;7.924;2023-02-11T03:09:43;1.30;99.90
42615;DHT22;28754;47.700;7.924;2023-02-11T03:12:36;1.30;99.90
42615;DHT22;28754;47.700;7.924;2023-02-11T03:15:27;1.30;99.90
42615;DHT22;28754;47.700;7.924;2023-02-11T03:18:19;1.40;99.90
42615;DHT22;28754;47.700;7.924;2023-02-11T03:21:10;1.40;99.90
42615;DHT22;28754;47.700;7.924;2023-02-11T03:24:06;1.40;99.90
42615;DHT22;28754;47.700;7.924;2023-02-11T03:27:23;1.40;99.90
42615;DHT22;28754;47.700;7.924;2023-02-11T03:30:21;1.40;99.90
42615;DHT22;28754;47.700;7.924;2023-02-11T03:36:31;1.40;99.90
42615;DHT22;28754;47.700;7.924;2023-02-11T03:39:37;1.40;99.90
42615;DHT22;28754;47.700;7.924;2023-02-11T03:42:34;1.40;99.90
42615;DHT22;28754;47.700;7.924;2023-02-11T03:45:27;1.50;99.90
42615;DHT22;28754;47.700;7.924;2023-02-11T03:48:29;1.50;99.90
42615;DHT22;28754;47.700;7.924;2023-02-11T03:51:21;1.40;99.90
42615;DHT22;28754;47.700;7.924;2023-02-11T03:54:14;1.40;99.90
42615;DHT22;28754;47.700;7.924;2023-02-11T03:57:04;1.40;99.90
42615;DHT22;28754;47.700;7.924;2023-02-11T03:59:57;1.30;99.90
42615;DHT22;28754;47.700;7.924;2023-02-11T04:02:44;1.40;99.90
42615;DHT22;28754;47.700;7.924;2023-02-11T04:05:31;1.50;99.90
42615;DHT22;28754;47.700;7.924;2023-02-11T04:08:19;1.50;99.90
42615;DHT22;28754;47.700;7.924;2023-02-11T04:11:06;1.50;99.90
42615;DHT22;28754;47.700;7.924;2023-02-11T04:13:52;1.40;99.90
42615;DHT22;28754;47.700;7.924;2023-02-11T04:16:39;1.50;99.90
42615;DHT22;28754;47.700;7.924;2023-02-11T04:19:26;1.40;99.90
42615;DHT22;28754;47.700;7.924;2023-02-11T04:22:12;1.20;99.90
42615;DHT22;28754;47.700;7.924;2023-02-11T04:24:59;1.20;99.90
42615;DHT22;28754;47.700;7.924;2023-02-11T04:27:46;1.10;99.90
42615;DHT22;28754;47.700;7.924;2023-02-11T04:30:32;1.00;99.90
42615;DHT22;28754;47.700;7.924;2023-02-11T04:33:19;1.10;99.90
42615;DHT22;28754;47.700;7.924;2023-02-11T04:36:06;1.00;99.90
42615;DHT22;28754;47.700;7.924;2023-02-11T04:38:53;1.00;99.90
42615;DHT22;28754;47.700;7.924;2023-02-11T04:41:40;1.00;99.90
42615;DHT22;28754;47.700;7.924;2023-02-11T04:44:27;1.10;99.90
42615;DHT22;28754;47.700;7.924;2023-02-11T04:47:13;1.20;99.90
42615;DHT22;28754;47.700;7.924;2023-02-11T04:50:00;1.20;99.90
42615;DHT22;28754;47.700;7.924;2023-02-11T04:52:47;1.20;99.90
42615;DHT22;28754;47.700;7.924;2023-02-11T04:55:34;1.20;99.90
42615;DHT22;28754;47.700;7.924;2023-02-11T04:58:20;1.10;99.90
42615;DHT22;28754;47.700;7.924;2023-02-11T05:01:08;1.20;99.90
42615;DHT22;28754;47.700;7.924;2023-02-11T05:03:57;1.20;99.90
42615;DHT22;28754;47.700;7.924;2023-02-11T05:06:44;1.10;99.90
42615;DHT22;28754;47.700;7.924;2023-02-11T05:09:30;0.90;99.90
42615;DHT22;28754;47.700;7.924;2023-02-11T05:12:17;1.00;99.90
42615;DHT22;28754;47.700;7.924;2023-02-11T05:15:04;0.90;99.90
42615;DHT22;28754;47.700;7.924;2023-02-11T05:17:52;1.00;99.90
42615;DHT22;28754;47.700;7.924;2023-02-11T05:20:39;1.00;99.90
42615;DHT22;28754;47.700;7.924;2023-02-11T05:23:26;1.00;99.90
42615;DHT22;28754;47.700;7.924;2023-02-11T05:26:14;1.00;99.90
42615;DHT22;28754;47.700;7.924;2023-02-11T05:29:00;1.00;99.90
42615;DHT22;28754;47.700;7.924;2023-02-11T05:31:47;1.10;99.90
42615;DHT22;28754;47.700;7.924;2023-02-11T05:34:34;1.10;99.90
42615;DHT22;28754;47.700;7.924;2023-02-11T05:37:21;1.20;99.90
42615;DHT22;28754;47.700;7.924;2023-02-11T05:40:09;1.20;99.90
42615;DHT22;28754;47.700;7.924;2023-02-11T05:42:56;1.10;99.90
42615;DHT22;28754;47.700;7.924;2023-02-11T05:45:42;1.00;99.90
42615;DHT22;28754;47.700;7.924;2023-02-11T05:48:29;1.00;99.90
42615;DHT22;28754;47.700;7.924;2023-02-11T05:51:16;1.00;99.90
42615;DHT22;28754;47.700;7.924;2023-02-11T05:54:03;0.90;99.90
42615;DHT22;28754;47.700;7.924;2023-02-11T05:56:50;0.90;99.90
42615;DHT22;28754;47.700;7.924;2023-02-11T05:59:37;0.90;99.90
42615;DHT22;28754;47.700;7.924;2023-02-11T06:02:24;1.00;99.90
42615;DHT22;28754;47.700;7.924;2023-02-11T06:05:11;1.10;99.90
42615;DHT22;28754;47.700;7.924;2023-02-11T06:07:57;1.10;99.90
42615;DHT22;28754;47.700;7.924;2023-02-11T06:10:45;1.00;99.90
42615;DHT22;28754;47.700;7.924;2023-02-11T06:13:33;1.10;99.90
42615;DHT22;28754;47.700;7.924;2023-02-11T06:16:21;1.10;99.90
42615;DHT22;28754;47.700;7.924;2023-02-11T06:19:08;1.00;99.90
42615;DHT22;28754;47.700;7.924;2023-02-11T06:21:55;0.90;99.90
42615;DHT22;28754;47.700;7.924;2023-02-11T06:24:42;0.90;99.90
42615;DHT22;28754;47.700;7.924;2023-02-11T06:27:29;1.00;99.90
42615;DHT22;28754;47.700;7.924;2023-02-11T06:30:16;0.90;99.90
42615;DHT22;28754;47.700;7.924;2023-02-11T06:33:03;0.80;99.90
42615;DHT22;28754;47.700;7.924;2023-02-11T06:35:50;0.80;99.90
42615;DHT22;28754;47.700;7.924;2023-02-11T06:38:36;0.90;99.90
42615;DHT22;28754;47.700;7.924;2023-02-11T06:41:23;0.90;99.90
42615;DHT22;28754;47.700;7.924;2023-02-11T06:44:10;1.00;99.90
42615;DHT22;28754;47.700;7.924;2023-02-11T06:46:56;1.00;99.90
42615;DHT22;28754;47.700;7.924;2023-02-11T06:49:43;1.10;99.90
42615;DHT22;28754;47.700;7.924;2023-02-11T06:52:31;1.10;99.90
42615;DHT22;28754;47.700;7.924;2023-02-11T06:55:18;1.20;99.90
42615;DHT22;28754;47.700;7.924;2023-02-11T06:58:05;1.30;99.90
42615;DHT22;28754;47.700;7.924;2023-02-11T07:00:51;1.40;99.90
42615;DHT22;28754;47.700;7.924;2023-02-11T07:03:40;1.40;99.90
42615;DHT22;28754;47.700;7.924;2023-02-11T07:06:28;1.70;99.90
42615;DHT22;28754;47.700;7.924;2023-02-11T07:09:15;2.40;99.90
42615;DHT22;28754;47.700;7.924;2023-02-11T07:12:02;2.90;99.90
42615;DHT22;28754;47.700;7.924;2023-02-11T07:14:49;3.90;99.90
42615;DHT22;28754;47.700;7.924;2023-02-11T07:17:35;4.30;99.90
42615;DHT22;28754;47.700;7.924;2023-02-11T07:20:22;5.40;99.90
42615;DHT22;28754;47.700;7.924;2023-02-11T07:23:09;6.90;99.90
42615;DHT22;28754;47.700;7.924;2023-02-11T07:25:56;8.30;98.70
42615;DHT22;28754;47.700;7.924;2023-02-11T07:28:43;10.00;97.50
42615;DHT22;28754;47.700;7.924;2023-02-11T07:31:31;10.70;97.10
42615;DHT22;28754;47.700;7.924;2023-02-11T07:34:18;11.10;95.80
42615;DHT22;28754;47.700;7.924;2023-02-11T07:37:05;11.80;94.60
42615;DHT22;28754;47.700;7.924;2023-02-11T07:39:51;11.90;94.40
42615;DHT22;28754;47.700;7.924;2023-02-11T07:42:38;13.00;95.20
42615;DHT22;28754;47.700;7.924;2023-02-11T07:45:27;13.10;93.60
42615;DHT22;28754;47.700;7.924;2023-02-11T07:48:13;13.70;92.70
42615;DHT22;28754;47.700;7.924;2023-02-11T07:51:09;14.50;92.20
42615;DHT22;28754;47.700;7.924;2023-02-11T07:54:07;15.00;91.30
42615;DHT22;28754;47.700;7.924;2023-02-11T07:56:54;12.10;92.10
42615;DHT22;28754;47.700;7.924;2023-02-11T07:59:44;10.30;93.40
42615;DHT22;28754;47.700;7.924;2023-02-11T08:02:41;9.20;94.30
42615;DHT22;28754;47.700;7.924;2023-02-11T08:05:29;8.20;95.80
42615;DHT22;28754;47.700;7.924;2023-02-11T08:08:16;7.70;97.40
42615;DHT22;28754;47.700;7.924;2023-02-11T08:11:14;7.50;97.70
42615;DHT22;28754;47.700;7.924;2023-02-11T08:14:17;7.50;98.00
42615;DHT22;28754;47.700;7.924;2023-02-11T08:17:05;7.60;98.70
42615;DHT22;28754;47.700;7.924;2023-02-11T08:19:52;7.90;98.30
42615;DHT22;28754;47.700;7.924;2023-02-11T08:22:42;10.70;97.50
42615;DHT22;28754;47.700;7.924;2023-02-11T08:25:36;12.10;94.70
42615;DHT22;28754;47.700;7.924;2023-02-11T08:28:26;12.50;93.30
42615;DHT22;28754;47.700;7.924;2023-02-11T08:31:18;10.80;95.40
42615;DHT22;28754;47.700;7.924;2023-02-11T08:34:07;9.30;95.60
42615;DHT22;28754;47.700;7.924;2023-02-11T08:36:56;8.50;97.30
42615;DHT22;28754;47.700;7.924;2023-02-11T08:39:42;9.00;97.20
42615;DHT22;28754;47.700;7.924;2023-02-11T08:42:30;10.50;95.80
42615;DHT22;28754;47.700;7.924;2023-02-11T08:45:16;10.60;94.20
42615;DHT22;28754;47.700;7.924;2023-02-11T08:48:03;10.30;94.30
42615;DHT22;28754;47.700;7.924;2023-02-11T08:50:50;10.10;94.30
42615;DHT22;28754;47.700;7.924;2023-02-11T08:53:38;9.60;94.60
42615;DHT22;28754;47.700;7.924;2023-02-11T08:56:25;9.70;95.10
42615;DHT22;28754;47.700;7.924;2023-02-11T08:59:13;11.20;94.30
42615;DHT22;28754;47.700;7.924;2023-02-11T09:02:00;11.90;94.30
42615;DHT22;28754;47.700;7.924;2023-02-11T09:04:47;13.30;93.80
42615;DHT22;28754;47.700;7.924;2023-02-11T09:07:49;13.90;93.10
42615;DHT22;28754;47.700;7.924;2023-02-11T09:10:37;12.50;92.50
42615;DHT22;28754;47.700;7.924;2023-02-11T09:13:24;11.10;93.70
42615;DHT22;28754;47.700;7.924;2023-02-11T09:16:40;10.40;94.20
42615;DHT22;28754;47.700;7.924;2023-02-11T09:19:31;9.50;95.10
42615;DHT22;28754;47.700;7.924;2023-02-11T09:22:22;8.70;96.30
42615;DHT22;28754;47.700;7.924;2023-02-11T09:25:09;8.40;96.30
42615;DHT22;28754;47.700;7.924;2023-02-11T09:27:56;8.10;96.40
42615;DHT22;28754;47.700;7.924;2023-02-11T09:30:43;7.90;96.50
42615;DHT22;28754;47.700;7.924;2023-02-11T09:38:09;7.90;97.20
42615;DHT22;28754;47.700;7.924;2023-02-11T09:45:35;8.50;96.60
42615;DHT22;28754;47.700;7.924;2023-02-11T09:48:59;8.90;97.20
42615;DHT22;28754;47.700;7.924;2023-02-11T09:54:59;8.80;97.90
42615;DHT22;28754;47.700;7.924;2023-02-11T10:06:52;24.30;83.00
42615;DHT22;28754;47.700;7.924;2023-02-11T10:24:40;22.20;85.20
42615;DHT22;28754;47.700;7.924;2023-02-11T10:27:38;21.90;79.80
42615;DHT22;28754;47.700;7.924;2023-02-11T10:30:33;20.80;81.00
42615;DHT22;28754;47.700;7.924;2023-02-11T10:36:59;20.80;81.70
42615;DHT22;28754;47.700;7.924;2023-02-11T10:40:27;21.60;81.70
42615;DHT22;28754;47.700;7.924;2023-02-11T10:43:26;22.00;80.70
42615;DHT22;28754;47.700;7.924;2023-02-11T10:46:21;22.30;79.70
42615;DHT22;28754;47.700;7.924;2023-02-11T10:49:33;23.40;78.10
42615;DHT22;28754;47.700;7.924;2023-02-11T10:52:24;21.60;79.70
42615;DHT22;28754;47.700;7.924;2023-02-11T10:55:22;20.90;79.60
42615;DHT22;28754;47.700;7.924;2023-02-11T10:58:22;20.70;80.80
42615;DHT22;28754;47.700;7.924;2023-02-11T11:07:29;23.70;79.00
42615;DHT22;28754;47.700;7.924;2023-02-11T11:16:36;23.50;78.40
42615;DHT22;28754;47.700;7.924;2023-02-11T11:33:30;25.50;77.50
42615;DHT22;28754;47.700;7.924;2023-02-11T11:40:26;28.70;76.00
42615;DHT22;28754;47.700;7.924;2023-02-11T11:51:36;24.20;77.70
42615;DHT22;28754;47.700;7.924;2023-02-11T11:54:36;23.50;78.30
42615;DHT22;28754;47.700;7.924;2023-02-11T11:57:27;23.30;79.50
42615;DHT22;28754;47.700;7.924;2023-02-11T12:00:20;24.00;77.90
42615;DHT22;28754;47.700;7.924;2023-02-11T12:16:27;23.40;77.60
42615;DHT22;28754;47.700;7.924;2023-02-11T12:23:06;22.60;78.20
42615;DHT22;28754;47.700;7.924;2023-02-11T12:26:14;23.20;77.60
42615;DHT22;28754;47.700;7.924;2023-02-11T12:29:37;24.80;77.00
42615;DHT22;28754;47.700;7.924;2023-02-11T12:33:02;26.10;75.30
42615;DHT22;28754;47.700;7.924;2023-02-11T12:39:56;25.50;75.90
42615;DHT22;28754;47.700;7.924;2023-02-11T12:43:22;25.40;76.20
42615;DHT22;28754;47.700;7.924;2023-02-11T12:46:37;24.40;76.80
42615;DHT22;28754;47.700;7.924;2023-02-11T12:49:44;26.70;74.50
42615;DHT22;28754;47.700;7.924;2023-02-11T12:53:01;23.90;75.50
42615;DHT22;28754;47.700;7.924;2023-02-11T13:06:19;23.60;76.50
42615;DHT22;28754;47.700;7.924;2023-02-11T13:09:18;24.00;77.20
42615;DHT22;28754;47.700;7.924;2023-02-11T13:12:12;26.40;75.90
42615;DHT22;28754;47.700;7.924;2023-02-11T13:15:18;25.70;75.20
42615;DHT22;28754;47.700;7.924;2023-02-11T13:18:19;27.20;74.40
42615;DHT22;28754;47.700;7.924;2023-02-11T13:21:29;24.90;75.00
42615;DHT22;28754;47.700;7.924;2023-02-11T13:31:09;22.00;79.10
42615;DHT22;28754;47.700;7.924;2023-02-11T13:33:58;22.70;78.10
42615;DHT22;28754;47.700;7.924;2023-02-11T13:36:53;22.10;78.10
42615;DHT22;28754;47.700;7.924;2023-02-11T13:39:41;22.30;78.30
42615;DHT22;28754;47.700;7.924;2023-02-11T13:42:29;23.10;78.50
42615;DHT22;28754;47.700;7.924;2023-02-11T13:45:42;20.30;81.00
42615;DHT22;28754;47.700;7.924;2023-02-11T13:48:34;21.10;80.40
42615;DHT22;28754;47.700;7.924;2023-02-11T13:51:39;22.00;81.00
42615;DHT22;28754;47.700;7.924;2023-02-11T13:54:38;22.60;78.60
42615;DHT22;28754;47.700;7.924;2023-02-11T13:57:30;24.30;77.30
42615;DHT22;28754;47.700;7.924;2023-02-11T14:03:31;22.40;81.00
42615;DHT22;28754;47.700;7.924;2023-02-11T14:07:20;21.80;80.00
42615;DHT22;28754;47.700;7.924;2023-02-11T14:10:51;21.80;81.40
42615;DHT22;28754;47.700;7.924;2023-02-11T14:16:34;21.70;81.30
42615;DHT22;28754;47.700;7.924;2023-02-11T14:19:42;21.20;83.40
42615;DHT22;28754;47.700;7.924;2023-02-11T14:22:43;20.30;84.00
42615;DHT22;28754;47.700;7.924;2023-02-11T14:25:35;20.10;84.60
42615;DHT22;28754;47.700;7.924;2023-02-11T14:28:28;19.70;85.10
42615;DHT22;28754;47.700;7.924;2023-02-11T14:31:51;19.40;86.50
42615;DHT22;28754;47.700;7.924;2023-02-11T14:35:11;20.50;84.20
42615;DHT22;28754;47.700;7.924;2023-02-11T14:38:19;21.60;83.20
42615;DHT22;28754;47.700;7.924;2023-02-11T14:41:26;22.70;81.90
42615;DHT22;28754;47.700;7.924;2023-02-11T14:44:26;23.50;80.00
42615;DHT22;28754;47.700;7.924;2023-02-11T14:50:39;25.90;78.40
42615;DHT22;28754;47.700;7.924;2023-02-11T14:53:31;25.00;78.00
42615;DHT22;28754;47.700;7.924;2023-02-11T14:56:23;23.50;80.30
42615;DHT22;28754;47.700;7.924;2023-02-11T14:59:18;22.30;81.50
42615;DHT22;28754;47.700;7.924;2023-02-11T15:02:22;21.20;82.90
42615;DHT22;28754;47.700;7.924;2023-02-11T15:05:23;21.80;83.20
42615;DHT22;28754;47.700;7.924;2023-02-11T15:08:13;22.30;82.00
42615;DHT22;28754;47.700;7.924;2023-02-11T15:11:09;22.30;81.10
42615;DHT22;28754;47.700;7.924;2023-02-11T15:14:07;22.60;81.70
42615;DHT22;28754;47.700;7.924;2023-02-11T15:17:00;20.50;82.50
42615;DHT22;28754;47.700;7.924;2023-02-11T15:19:51;18.00;86.00
42615;DHT22;28754;47.700;7.924;2023-02-11T15:22:43;17.70;89.60
42615;DHT22;28754;47.700;7.924;2023-02-11T15:25:32;18.80;87.00
42615;DHT22;28754;47.700;7.924;2023-02-11T15:28:27;19.90;85.80
42615;DHT22;28754;47.700;7.924;2023-02-11T15:31:16;19.50;85.20
42615;DHT22;28754;47.700;7.924;2023-02-11T15:34:08;19.10;85.70
42615;DHT22;28754;47.700;7.924;2023-02-11T15:37:01;18.30;87.10
42615;DHT22;28754;47.700;7.924;2023-02-11T15:39:50;17.70;88.70
42615;DHT22;28754;47.700;7.924;2023-02-11T15:42:38;17.70;89.80
42615;DHT22;28754;47.700;7.924;2023-02-11T15:45:29;18.10;88.70
42615;DHT22;28754;47.700;7.924;2023-02-11T15:48:23;16.90;90.30
42615;DHT22;28754;47.700;7.924;2023-02-11T15:51:32;15.50;91.10
42615;DHT22;28754;47.700;7.924;2023-02-11T15:54:24;14.40;92.40
42615;DHT22;28754;47.700;7.924;2023-02-11T15:57:24;13.80;92.40
42615;DHT22;28754;47.700;7.924;2023-02-11T16:00:22;13.30;92.60
42615;DHT22;28754;47.700;7.924;2023-02-11T16:03:23;13.00;93.10
42615;DHT22;28754;47.700;7.924;2023-02-11T16:06:25;13.00;93.20
42615;DHT22;28754;47.700;7.924;2023-02-11T16:09:30;12.80;93.70
42615;DHT22;28754;47.700;7.924;2023-02-11T16:12:23;12.20;93.90
42615;DHT22;28754;47.700;7.924;2023-02-11T16:15:57;12.30;94.80
42615;DHT22;28754;47.700;7.924;2023-02-11T16:19:03;12.30;94.90
42615;DHT22;28754;47.700;7.924;2023-02-11T16:21:51;11.80;95.60
42615;DHT22;28754;47.700;7.924;2023-02-11T16:24:39;11.00;95.40
42615;DHT22;28754;47.700;7.924;2023-02-11T16:27:36;10.80;96.10
42615;DHT22;28754;47.700;7.924;2023-02-11T16:30:36;10.80;96.10
42615;DHT22;28754;47.700;7.924;2023-02-11T16:33:25;10.90;95.90
42615;DHT22;28754;47.700;7.924;2023-02-11T16:36:14;11.10;96.20
42615;DHT22;28754;47.700;7.924;2023-02-11T16:39:02;11.00;96.40
42615;DHT22;28754;47.700;7.924;2023-02-11T16:41:50;11.00;96.50
42615;DHT22;28754;47.700;7.924;2023-02-11T16:44:40;10.30;97.10
42615;DHT22;28754;47.700;7.924;2023-02-11T16:47:27;10.00;97.50
42615;DHT22;28754;47.700;7.924;2023-02-11T16:50:24;10.00;97.70
42615;DHT22;28754;47.700;7.924;2023-02-11T16:53:17;9.90;97.90
42615;DHT22;28754;47.700;7.924;2023-02-11T16:56:13;9.90;98.00
42615;DHT22;28754;47.700;7.924;2023-02-11T16:59:02;9.90;98.10
42615;DHT22;28754;47.700;7.924;2023-02-11T17:01:49;9.80;98.00
42615;DHT22;28754;47.700;7.924;2023-02-11T17:04:38;9.90;98.50
42615;DHT22;28754;47.700;7.924;2023-02-11T17:07:25;9.70;98.20
42615;DHT22;28754;47.700;7.924;2023-02-11T17:10:19;9.60;98.60
42615;DHT22;28754;47.700;7.924;2023-02-11T17:13:07;8.80;99.00
42615;DHT22;28754;47.700;7.924;2023-02-11T17:15:54;8.90;99.30
42615;DHT22;28754;47.700;7.924;2023-02-11T17:18:40;9.10;99.20
42615;DHT22;28754;47.700;7.924;2023-02-11T17:21:27;9.00;99.10
42615;DHT22;28754;47.700;7.924;2023-02-11T17:24:17;9.00;99.20
42615;DHT22;28754;47.700;7.924;2023-02-11T17:27:05;8.90;98.80
42615;DHT22;28754;47.700;7.924;2023-02-11T17:29:52;8.70;99.00
42615;DHT22;28754;47.700;7.924;2023-02-11T17:32:38;8.60;99.20
42615;DHT22;28754;47.700;7.924;2023-02-11T17:35:26;8.40;99.50
42615;DHT22;28754;47.700;7.924;2023-02-11T17:38:12;8.10;99.60
42615;DHT22;28754;47.700;7.924;2023-02-11T17:41:00;7.90;99.90
42615;DHT22;28754;47.700;7.924;2023-02-11T17:43:57;8.00;99.90
42615;DHT22;28754;47.700;7.924;2023-02-11T17:46:45;8.00;99.90
42615;DHT22;28754;47.700;7.924;2023-02-11T17:49:32;7.90;99.90
42615;DHT22;28754;47.700;7.924;2023-02-11T17:52:18;7.90;99.90
42615;DHT22;28754;47.700;7.924;2023-02-11T17:55:06;8.10;99.30
42615;DHT22;28754;47.700;7.924;2023-02-11T17:57:56;7.90;99.00
42615;DHT22;28754;47.700;7.924;2023-02-11T18:00:43;7.80;99.40
42615;DHT22;28754;47.700;7.924;2023-02-11T18:03:30;7.70;99.50
42615;DHT22;28754;47.700;7.924;2023-02-11T18:06:20;7.60;99.80
42615;DHT22;28754;47.700;7.924;2023-02-11T18:09:07;7.50;99.70
42615;DHT22;28754;47.700;7.924;2023-02-11T18:11:54;7.40;99.90
42615;DHT22;28754;47.700;7.924;2023-02-11T18:14:41;7.50;99.90
42615;DHT22;28754;47.700;7.924;2023-02-11T18:17:28;7.40;99.60
42615;DHT22;28754;47.700;7.924;2023-02-11T18:20:14;7.30;99.80
42615;DHT22;28754;47.700;7.924;2023-02-11T18:23:02;7.10;99.90
42615;DHT22;28754;47.700;7.924;2023-02-11T18:25:49;7.30;99.90
42615;DHT22;28754;47.700;7.924;2023-02-11T18:28:36;7.40;99.90
42615;DHT22;28754;47.700;7.924;2023-02-11T18:31:24;7.30;99.90
42615;DHT22;28754;47.700;7.924;2023-02-11T18:34:12;7.30;99.90
42615;DHT22;28754;47.700;7.924;2023-02-11T18:36:58;7.20;99.90
42615;DHT22;28754;47.700;7.924;2023-02-11T18:39:45;7.20;99.90
42615;DHT22;28754;47.700;7.924;2023-02-11T18:42:32;7.20;99.30
42615;DHT22;28754;47.700;7.924;2023-02-11T18:45:19;7.00;99.20
42615;DHT22;28754;47.700;7.924;2023-02-11T18:48:06;7.00;99.30
42615;DHT22;28754;47.700;7.924;2023-02-11T18:50:53;6.80;99.50
42615;DHT22;28754;47.700;7.924;2023-02-11T18:53:41;6.90;99.80
42615;DHT22;28754;47.700;7.924;2023-02-11T18:56:28;6.70;99.60
42615;DHT22;28754;47.700;7.924;2023-02-11T18:59:15;6.70;99.80
42615;DHT22;28754;47.700;7.924;2023-02-11T19:02:02;6.80;99.90
42615;DHT22;28754;47.700;7.924;2023-02-11T19:04:48;6.70;99.90
42615;DHT22;28754;47.700;7.924;2023-02-11T19:07:35;6.80;99.90
42615;DHT22;28754;47.700;7.924;2023-02-11T19:10:23;6.60;99.90
42615;DHT22;28754;47.700;7.924;2023-02-11T19:13:10;6.70;99.90
42615;DHT22;28754;47.700;7.924;2023-02-11T19:15:57;6.80;99.90
42615;DHT22;28754;47.700;7.924;2023-02-11T19:18:43;6.80;99.90
42615;DHT22;28754;47.700;7.924;2023-02-11T19:21:31;6.60;99.90
42615;DHT22;28754;47.700;7.924;2023-02-11T19:24:19;6.30;99.90
42615;DHT22;28754;47.700;7.924;2023-02-11T19:27:08;6.10;99.90
42615;DHT22;28754;47.700;7.924;2023-02-11T19:29:55;6.10;99.90
42615;DHT22;28754;47.700;7.924;2023-02-11T19:32:42;6.00;99.90
42615;DHT22;28754;47.700;7.924;2023-02-11T19:35:28;6.10;99.90
42615;DHT22;28754;47.700;7.924;2023-02-11T19:38:15;6.00;99.90
42615;DHT22;28754;47.700;7.924;2023-02-11T19:41:03;6.00;99.90
42615;DHT22;28754;47.700;7.924;2023-02-11T19:43:50;6.00;99.90
42615;DHT22;28754;47.700;7.924;2023-02-11T19:46:38;5.90;99.90
42615;DHT22;28754;47.700;7.924;2023-02-11T19:49:28;5.90;99.90
42615;DHT22;28754;47.700;7.924;2023-02-11T19:52:15;6.00;99.90
42615;DHT22;28754;47.700;7.924;2023-02-11T19:55:01;6.00;99.90
42615;DHT22;28754;47.700;7.924;2023-02-11T19:57:48;5.80;99.90
42615;DHT22;28754;47.700;7.924;2023-02-11T20:00:35;5.80;99.90
42615;DHT22;28754;47.700;7.924;2023-02-11T20:03:22;5.70;99.90
42615;DHT22;28754;47.700;7.924;2023-02-11T20:06:12;5.60;99.90
42615;DHT22;28754;47.700;7.924;2023-02-11T20:09:06;5.40;99.90
42615;DHT22;28754;47.700;7.924;2023-02-11T20:11:55;5.30;99.90
42615;DHT22;28754;47.700;7.924;2023-02-11T20:14:42;5.30;99.90
42615;DHT22;28754;47.700;7.924;2023-02-11T20:17:28;5.30;99.90
42615;DHT22;28754;47.700;7.924;2023-02-11T20:20:18;5.30;99.90
42615;DHT22;28754;47.700;7.924;2023-02-11T20:23:05;5.30;99.90
42615;DHT22;28754;47.700;7.924;2023-02-11T20:25:52;5.20;99.90
42615;DHT22;28754;47.700;7.924;2023-02-11T20:28:39;5.20;99.90
42615;DHT22;28754;47.700;7.924;2023-02-11T20:31:27;5.10;99.90
42615;DHT22;28754;47.700;7.924;2023-02-11T20:34:14;5.10;99.90
42615;DHT22;28754;47.700;7.924;2023-02-11T20:37:02;5.10;99.90
42615;DHT22;28754;47.700;7.924;2023-02-11T20:39:50;5.00;99.90
42615;DHT22;28754;47.700;7.924;2023-02-11T20:42:36;4.90;99.90
42615;DHT22;28754;47.700;7.924;2023-02-11T20:45:23;4.90;99.90
42615;DHT22;28754;47.700;7.924;2023-02-11T20:48:12;4.80;99.90